Terminal Aerodrome Forecast
Issued by NWS

Home | Current Version | Previous Version | Text Only | Print | Product List | Glossary On
Versions: 1 2 3 4 5 6 7 8 9 10 11 12 13 14
256
FTUS43 KSGF 241124
TAFJLN
TAF
KJLN 241124Z 2412/2512 19008KT P6SM SCT250
     FM241600 21019G27KT P6SM SCT250
     FM250500 31004KT P6SM BKN120
     FM251000 01005KT P6SM SCT250=

USA.gov is the U.S. government's official web portal to all federal, state and local government web resources and services.